sensor_id;sensor_type;location;lat;lon;timestamp;P1;durP1;ratioP1;P2;durP2;ratioP2
14961;SDS011;56489;53.166;10.864;2022-07-26T00:00:04;8.45;;;6.82;;
14961;SDS011;56489;53.166;10.864;2022-07-26T00:02:34;7.68;;;6.88;;
14961;SDS011;56489;53.166;10.864;2022-07-26T00:05:01;7.55;;;6.75;;
14961;SDS011;56489;53.166;10.864;2022-07-26T00:07:27;10.30;;;7.05;;
14961;SDS011;56489;53.166;10.864;2022-07-26T00:10:02;8.38;;;6.80;;
14961;SDS011;56489;53.166;10.864;2022-07-26T00:12:30;7.90;;;7.00;;
14961;SDS011;56489;53.166;10.864;2022-07-26T00:14:57;9.93;;;7.72;;
14961;SDS011;56489;53.166;10.864;2022-07-26T00:17:24;9.15;;;7.28;;
14961;SDS011;56489;53.166;10.864;2022-07-26T00:19:51;7.35;;;6.60;;
14961;SDS011;56489;53.166;10.864;2022-07-26T00:22:17;7.20;;;6.32;;
14961;SDS011;56489;53.166;10.864;2022-07-26T00:24:59;8.15;;;7.05;;
14961;SDS011;56489;53.166;10.864;2022-07-26T00:27:29;7.70;;;6.43;;
14961;SDS011;56489;53.166;10.864;2022-07-26T00:29:56;7.30;;;6.45;;
14961;SDS011;56489;53.166;10.864;2022-07-26T00:32:22;7.65;;;6.20;;
14961;SDS011;56489;53.166;10.864;2022-07-26T00:34:50;8.35;;;6.57;;
14961;SDS011;56489;53.166;10.864;2022-07-26T00:37:17;7.85;;;6.50;;
14961;SDS011;56489;53.166;10.864;2022-07-26T00:39:46;7.68;;;6.88;;
14961;SDS011;56489;53.166;10.864;2022-07-26T00:42:13;7.95;;;7.10;;
14961;SDS011;56489;53.166;10.864;2022-07-26T00:44:41;7.25;;;6.28;;
14961;SDS011;56489;53.166;10.864;2022-07-26T00:47:10;7.50;;;6.78;;
14961;SDS011;56489;53.166;10.864;2022-07-26T00:49:37;8.50;;;6.13;;
14961;SDS011;56489;53.166;10.864;2022-07-26T00:52:04;6.45;;;5.57;;
14961;SDS011;56489;53.166;10.864;2022-07-26T00:54:32;7.07;;;6.43;;
14961;SDS011;56489;53.166;10.864;2022-07-26T00:56:59;6.47;;;5.55;;
14961;SDS011;56489;53.166;10.864;2022-07-26T00:59:26;7.28;;;6.40;;
14961;SDS011;56489;53.166;10.864;2022-07-26T01:01:53;8.40;;;6.00;;
14961;SDS011;56489;53.166;10.864;2022-07-26T01:04:20;10.23;;;6.95;;
14961;SDS011;56489;53.166;10.864;2022-07-26T01:06:47;8.43;;;6.45;;
14961;SDS011;56489;53.166;10.864;2022-07-26T01:09:15;6.20;;;5.65;;
14961;SDS011;56489;53.166;10.864;2022-07-26T01:11:41;8.18;;;5.95;;
14961;SDS011;56489;53.166;10.864;2022-07-26T01:14:08;7.00;;;6.07;;
14961;SDS011;56489;53.166;10.864;2022-07-26T01:16:35;7.18;;;6.47;;
14961;SDS011;56489;53.166;10.864;2022-07-26T01:19:02;7.88;;;6.60;;
14961;SDS011;56489;53.166;10.864;2022-07-26T01:21:29;6.47;;;5.88;;
14961;SDS011;56489;53.166;10.864;2022-07-26T01:23:57;8.68;;;6.80;;
14961;SDS011;56489;53.166;10.864;2022-07-26T01:26:24;9.63;;;6.18;;
14961;SDS011;56489;53.166;10.864;2022-07-26T01:28:51;9.07;;;5.75;;
14961;SDS011;56489;53.166;10.864;2022-07-26T01:31:17;7.15;;;6.45;;
14961;SDS011;56489;53.166;10.864;2022-07-26T01:33:44;6.47;;;5.90;;
14961;SDS011;56489;53.166;10.864;2022-07-26T01:36:12;8.85;;;6.03;;
14961;SDS011;56489;53.166;10.864;2022-07-26T01:38:39;7.95;;;5.32;;
14961;SDS011;56489;53.166;10.864;2022-07-26T01:41:06;5.95;;;5.30;;
14961;SDS011;56489;53.166;10.864;2022-07-26T01:43:34;5.78;;;5.28;;
14961;SDS011;56489;53.166;10.864;2022-07-26T01:46:00;5.88;;;5.32;;
14961;SDS011;56489;53.166;10.864;2022-07-26T01:48:28;5.65;;;5.00;;
14961;SDS011;56489;53.166;10.864;2022-07-26T01:50:56;6.15;;;5.55;;
14961;SDS011;56489;53.166;10.864;2022-07-26T01:53:22;7.05;;;5.68;;
14961;SDS011;56489;53.166;10.864;2022-07-26T01:55:49;7.40;;;5.32;;
14961;SDS011;56489;53.166;10.864;2022-07-26T01:58:16;6.10;;;5.38;;
14961;SDS011;56489;53.166;10.864;2022-07-26T02:00:43;11.20;;;5.97;;
14961;SDS011;56489;53.166;10.864;2022-07-26T02:03:09;6.20;;;5.20;;
14961;SDS011;56489;53.166;10.864;2022-07-26T02:05:36;5.43;;;4.88;;
14961;SDS011;56489;53.166;10.864;2022-07-26T02:08:03;7.20;;;5.22;;
14961;SDS011;56489;53.166;10.864;2022-07-26T02:10:29;8.75;;;5.55;;
14961;SDS011;56489;53.166;10.864;2022-07-26T02:13:15;7.25;;;6.20;;
14961;SDS011;56489;53.166;10.864;2022-07-26T02:15:42;7.03;;;5.68;;
14961;SDS011;56489;53.166;10.864;2022-07-26T02:18:09;6.55;;;5.18;;
14961;SDS011;56489;53.166;10.864;2022-07-26T02:20:35;6.47;;;5.13;;
14961;SDS011;56489;53.166;10.864;2022-07-26T02:23:02;6.00;;;5.45;;
14961;SDS011;56489;53.166;10.864;2022-07-26T02:25:29;7.32;;;5.55;;
14961;SDS011;56489;53.166;10.864;2022-07-26T02:27:56;6.03;;;5.03;;
14961;SDS011;56489;53.166;10.864;2022-07-26T02:30:23;6.30;;;5.57;;
14961;SDS011;56489;53.166;10.864;2022-07-26T02:32:49;6.18;;;5.18;;
14961;SDS011;56489;53.166;10.864;2022-07-26T02:35:16;7.18;;;5.13;;
14961;SDS011;56489;53.166;10.864;2022-07-26T02:37:43;5.20;;;4.70;;
14961;SDS011;56489;53.166;10.864;2022-07-26T02:40:10;5.97;;;5.38;;
14961;SDS011;56489;53.166;10.864;2022-07-26T02:42:44;7.05;;;5.53;;
14961;SDS011;56489;53.166;10.864;2022-07-26T02:45:10;6.07;;;5.38;;
14961;SDS011;56489;53.166;10.864;2022-07-26T02:47:44;6.28;;;5.40;;
14961;SDS011;56489;53.166;10.864;2022-07-26T02:50:11;6.50;;;4.88;;
14961;SDS011;56489;53.166;10.864;2022-07-26T02:52:38;6.63;;;4.90;;
14961;SDS011;56489;53.166;10.864;2022-07-26T02:55:04;7.35;;;5.10;;
14961;SDS011;56489;53.166;10.864;2022-07-26T02:57:31;8.10;;;5.32;;
14961;SDS011;56489;53.166;10.864;2022-07-26T03:00:11;6.28;;;5.03;;
14961;SDS011;56489;53.166;10.864;2022-07-26T03:02:39;6.30;;;5.13;;
14961;SDS011;56489;53.166;10.864;2022-07-26T03:05:07;7.13;;;5.15;;
14961;SDS011;56489;53.166;10.864;2022-07-26T03:07:33;5.82;;;4.93;;
14961;SDS011;56489;53.166;10.864;2022-07-26T03:10:00;5.88;;;5.22;;
14961;SDS011;56489;53.166;10.864;2022-07-26T03:12:27;6.88;;;5.07;;
14961;SDS011;56489;53.166;10.864;2022-07-26T03:14:53;7.32;;;5.30;;
14961;SDS011;56489;53.166;10.864;2022-07-26T03:17:20;6.53;;;5.38;;
14961;SDS011;56489;53.166;10.864;2022-07-26T03:19:47;6.53;;;5.43;;
14961;SDS011;56489;53.166;10.864;2022-07-26T03:22:13;8.00;;;5.03;;
14961;SDS011;56489;53.166;10.864;2022-07-26T03:24:40;7.70;;;5.32;;
14961;SDS011;56489;53.166;10.864;2022-07-26T03:27:07;6.35;;;4.68;;
14961;SDS011;56489;53.166;10.864;2022-07-26T03:29:33;6.22;;;5.60;;
14961;SDS011;56489;53.166;10.864;2022-07-26T03:32:00;8.75;;;5.55;;
14961;SDS011;56489;53.166;10.864;2022-07-26T03:34:26;8.05;;;6.00;;
14961;SDS011;56489;53.166;10.864;2022-07-26T03:36:53;7.47;;;5.53;;
14961;SDS011;56489;53.166;10.864;2022-07-26T03:39:20;7.35;;;5.38;;
14961;SDS011;56489;53.166;10.864;2022-07-26T03:41:46;6.43;;;4.32;;
14961;SDS011;56489;53.166;10.864;2022-07-26T03:44:13;6.03;;;5.15;;
14961;SDS011;56489;53.166;10.864;2022-07-26T03:46:39;7.93;;;6.18;;
14961;SDS011;56489;53.166;10.864;2022-07-26T03:49:06;6.45;;;5.75;;
14961;SDS011;56489;53.166;10.864;2022-07-26T03:51:38;6.90;;;5.70;;
14961;SDS011;56489;53.166;10.864;2022-07-26T03:54:04;7.25;;;6.10;;
14961;SDS011;56489;53.166;10.864;2022-07-26T03:56:32;6.93;;;6.20;;
14961;SDS011;56489;53.166;10.864;2022-07-26T03:58:59;9.68;;;6.40;;
14961;SDS011;56489;53.166;10.864;2022-07-26T04:01:27;6.53;;;5.93;;
14961;SDS011;56489;53.166;10.864;2022-07-26T04:03:54;9.45;;;6.55;;
14961;SDS011;56489;53.166;10.864;2022-07-26T04:06:21;8.07;;;5.57;;
14961;SDS011;56489;53.166;10.864;2022-07-26T04:08:48;9.40;;;6.15;;
14961;SDS011;56489;53.166;10.864;2022-07-26T04:11:15;6.20;;;5.32;;
14961;SDS011;56489;53.166;10.864;2022-07-26T04:13:41;5.82;;;5.10;;
14961;SDS011;56489;53.166;10.864;2022-07-26T04:16:08;7.88;;;5.40;;
14961;SDS011;56489;53.166;10.864;2022-07-26T04:18:34;6.80;;;5.00;;
14961;SDS011;56489;53.166;10.864;2022-07-26T04:21:01;6.95;;;5.55;;
14961;SDS011;56489;53.166;10.864;2022-07-26T04:23:28;6.18;;;5.55;;
14961;SDS011;56489;53.166;10.864;2022-07-26T04:25:55;7.75;;;5.47;;
14961;SDS011;56489;53.166;10.864;2022-07-26T04:28:21;8.30;;;5.55;;
14961;SDS011;56489;53.166;10.864;2022-07-26T04:30:49;10.82;;;5.45;;
14961;SDS011;56489;53.166;10.864;2022-07-26T04:33:16;9.50;;;5.63;;
14961;SDS011;56489;53.166;10.864;2022-07-26T04:35:43;9.40;;;5.82;;
14961;SDS011;56489;53.166;10.864;2022-07-26T04:38:09;9.70;;;6.45;;
14961;SDS011;56489;53.166;10.864;2022-07-26T04:40:36;6.65;;;5.90;;
14961;SDS011;56489;53.166;10.864;2022-07-26T04:43:06;7.97;;;4.97;;
14961;SDS011;56489;53.166;10.864;2022-07-26T04:45:35;8.07;;;5.00;;
14961;SDS011;56489;53.166;10.864;2022-07-26T04:48:02;6.43;;;5.07;;
14961;SDS011;56489;53.166;10.864;2022-07-26T04:50:29;11.77;;;5.93;;
14961;SDS011;56489;53.166;10.864;2022-07-26T04:52:55;8.73;;;5.70;;
14961;SDS011;56489;53.166;10.864;2022-07-26T04:55:22;7.25;;;5.13;;
14961;SDS011;56489;53.166;10.864;2022-07-26T04:57:49;7.60;;;5.10;;
14961;SDS011;56489;53.166;10.864;2022-07-26T05:00:17;7.68;;;5.50;;
14961;SDS011;56489;53.166;10.864;2022-07-26T05:02:53;10.63;;;6.22;;
14961;SDS011;56489;53.166;10.864;2022-07-26T05:05:23;9.43;;;6.90;;
14961;SDS011;56489;53.166;10.864;2022-07-26T05:07:52;10.48;;;6.70;;
14961;SDS011;56489;53.166;10.864;2022-07-26T05:10:20;12.23;;;6.80;;
14961;SDS011;56489;53.166;10.864;2022-07-26T05:12:52;9.65;;;7.05;;
14961;SDS011;56489;53.166;10.864;2022-07-26T05:15:19;7.50;;;6.22;;
14961;SDS011;56489;53.166;10.864;2022-07-26T05:17:45;10.18;;;6.95;;
14961;SDS011;56489;53.166;10.864;2022-07-26T05:20:13;10.60;;;7.35;;
14961;SDS011;56489;53.166;10.864;2022-07-26T05:22:41;13.05;;;7.22;;
14961;SDS011;56489;53.166;10.864;2022-07-26T05:25:08;11.75;;;6.75;;
14961;SDS011;56489;53.166;10.864;2022-07-26T05:27:35;13.88;;;7.80;;
14961;SDS011;56489;53.166;10.864;2022-07-26T05:30:01;10.45;;;7.40;;
14961;SDS011;56489;53.166;10.864;2022-07-26T05:32:28;18.77;;;7.07;;
14961;SDS011;56489;53.166;10.864;2022-07-26T05:34:55;11.18;;;5.85;;
14961;SDS011;56489;53.166;10.864;2022-07-26T05:37:21;12.65;;;6.60;;
14961;SDS011;56489;53.166;10.864;2022-07-26T05:39:48;15.20;;;7.53;;
14961;SDS011;56489;53.166;10.864;2022-07-26T05:42:15;9.05;;;5.88;;
14961;SDS011;56489;53.166;10.864;2022-07-26T05:44:41;8.13;;;5.47;;
14961;SDS011;56489;53.166;10.864;2022-07-26T05:47:09;8.68;;;5.35;;
14961;SDS011;56489;53.166;10.864;2022-07-26T05:49:36;11.18;;;5.18;;
14961;SDS011;56489;53.166;10.864;2022-07-26T05:52:06;11.05;;;4.72;;
14961;SDS011;56489;53.166;10.864;2022-07-26T05:54:34;6.68;;;5.50;;
14961;SDS011;56489;53.166;10.864;2022-07-26T05:57:01;7.85;;;5.32;;
14961;SDS011;56489;53.166;10.864;2022-07-26T05:59:28;10.40;;;6.38;;
14961;SDS011;56489;53.166;10.864;2022-07-26T06:01:54;8.48;;;6.43;;
14961;SDS011;56489;53.166;10.864;2022-07-26T06:04:22;8.68;;;4.97;;
14961;SDS011;56489;53.166;10.864;2022-07-26T06:06:52;8.18;;;5.25;;
14961;SDS011;56489;53.166;10.864;2022-07-26T06:09:20;6.93;;;5.85;;
14961;SDS011;56489;53.166;10.864;2022-07-26T06:11:49;7.82;;;6.28;;
14961;SDS011;56489;53.166;10.864;2022-07-26T06:14:16;7.55;;;5.47;;
14961;SDS011;56489;53.166;10.864;2022-07-26T06:16:43;7.25;;;5.20;;
14961;SDS011;56489;53.166;10.864;2022-07-26T06:19:10;7.70;;;4.75;;
14961;SDS011;56489;53.166;10.864;2022-07-26T06:21:37;9.60;;;5.22;;
14961;SDS011;56489;53.166;10.864;2022-07-26T06:24:04;7.28;;;5.32;;
14961;SDS011;56489;53.166;10.864;2022-07-26T06:26:31;7.35;;;4.00;;
14961;SDS011;56489;53.166;10.864;2022-07-26T06:28:58;6.68;;;3.63;;
14961;SDS011;56489;53.166;10.864;2022-07-26T06:31:25;5.10;;;3.50;;
14961;SDS011;56489;53.166;10.864;2022-07-26T06:33:51;6.18;;;3.33;;
14961;SDS011;56489;53.166;10.864;2022-07-26T06:36:18;4.47;;;2.95;;
14961;SDS011;56489;53.166;10.864;2022-07-26T06:38:44;5.45;;;2.60;;
14961;SDS011;56489;53.166;10.864;2022-07-26T06:41:13;6.30;;;2.85;;
14961;SDS011;56489;53.166;10.864;2022-07-26T06:43:40;6.40;;;2.88;;
14961;SDS011;56489;53.166;10.864;2022-07-26T06:46:07;4.93;;;3.20;;
14961;SDS011;56489;53.166;10.864;2022-07-26T06:48:33;2.40;;;2.20;;
14961;SDS011;56489;53.166;10.864;2022-07-26T06:51:01;3.38;;;2.53;;
14961;SDS011;56489;53.166;10.864;2022-07-26T06:53:28;7.53;;;2.70;;
14961;SDS011;56489;53.166;10.864;2022-07-26T06:55:55;3.75;;;2.13;;
14961;SDS011;56489;53.166;10.864;2022-07-26T06:58:21;5.85;;;2.05;;
14961;SDS011;56489;53.166;10.864;2022-07-26T07:00:48;2.50;;;2.30;;
14961;SDS011;56489;53.166;10.864;2022-07-26T07:03:14;5.88;;;2.10;;
14961;SDS011;56489;53.166;10.864;2022-07-26T07:05:42;2.47;;;1.70;;
14961;SDS011;56489;53.166;10.864;2022-07-26T07:08:15;3.88;;;2.17;;
14961;SDS011;56489;53.166;10.864;2022-07-26T07:10:43;1.88;;;1.55;;
14961;SDS011;56489;53.166;10.864;2022-07-26T07:13:09;4.55;;;2.28;;
14961;SDS011;56489;53.166;10.864;2022-07-26T07:15:36;3.47;;;1.50;;
14961;SDS011;56489;53.166;10.864;2022-07-26T07:18:03;1.63;;;1.40;;
14961;SDS011;56489;53.166;10.864;2022-07-26T07:20:29;4.72;;;1.67;;
14961;SDS011;56489;53.166;10.864;2022-07-26T07:22:56;3.88;;;1.88;;
14961;SDS011;56489;53.166;10.864;2022-07-26T07:25:22;3.90;;;1.80;;
14961;SDS011;56489;53.166;10.864;2022-07-26T07:27:56;4.43;;;1.70;;
14961;SDS011;56489;53.166;10.864;2022-07-26T07:30:22;4.55;;;2.17;;
14961;SDS011;56489;53.166;10.864;2022-07-26T07:32:53;5.45;;;2.40;;
14961;SDS011;56489;53.166;10.864;2022-07-26T07:35:21;2.78;;;1.73;;
14961;SDS011;56489;53.166;10.864;2022-07-26T07:37:48;5.50;;;1.90;;
14961;SDS011;56489;53.166;10.864;2022-07-26T07:40:19;3.72;;;1.83;;
14961;SDS011;56489;53.166;10.864;2022-07-26T07:42:45;4.38;;;2.40;;
14961;SDS011;56489;53.166;10.864;2022-07-26T07:45:12;2.10;;;1.92;;
14961;SDS011;56489;53.166;10.864;2022-07-26T07:47:39;3.28;;;1.90;;
14961;SDS011;56489;53.166;10.864;2022-07-26T07:50:06;3.45;;;1.92;;
14961;SDS011;56489;53.166;10.864;2022-07-26T07:52:33;4.05;;;1.65;;
14961;SDS011;56489;53.166;10.864;2022-07-26T07:55:00;2.90;;;1.60;;
14961;SDS011;56489;53.166;10.864;2022-07-26T07:57:46;1.88;;;1.42;;
14961;SDS011;56489;53.166;10.864;2022-07-26T08:00:13;2.63;;;1.77;;
14961;SDS011;56489;53.166;10.864;2022-07-26T08:02:43;1.67;;;1.55;;
14961;SDS011;56489;53.166;10.864;2022-07-26T08:05:11;1.60;;;1.50;;
14961;SDS011;56489;53.166;10.864;2022-07-26T08:07:39;1.40;;;1.27;;
14961;SDS011;56489;53.166;10.864;2022-07-26T08:10:06;2.33;;;1.73;;
14961;SDS011;56489;53.166;10.864;2022-07-26T08:12:33;2.63;;;1.70;;
14961;SDS011;56489;53.166;10.864;2022-07-26T08:15:00;2.15;;;1.60;;
14961;SDS011;56489;53.166;10.864;2022-07-26T08:17:32;1.52;;;1.35;;
14961;SDS011;56489;53.166;10.864;2022-07-26T08:20:03;2.47;;;1.23;;
14961;SDS011;56489;53.166;10.864;2022-07-26T08:22:33;1.90;;;1.20;;
14961;SDS011;56489;53.166;10.864;2022-07-26T08:24:59;1.63;;;1.10;;
14961;SDS011;56489;53.166;10.864;2022-07-26T08:27:26;2.60;;;1.25;;
14961;SDS011;56489;53.166;10.864;2022-07-26T08:29:52;1.90;;;1.17;;
14961;SDS011;56489;53.166;10.864;2022-07-26T08:32:19;2.28;;;1.20;;
14961;SDS011;56489;53.166;10.864;2022-07-26T08:34:46;2.42;;;1.30;;
14961;SDS011;56489;53.166;10.864;2022-07-26T08:37:12;1.20;;;1.00;;
14961;SDS011;56489;53.166;10.864;2022-07-26T08:39:43;2.38;;;1.08;;
14961;SDS011;56489;53.166;10.864;2022-07-26T08:42:14;4.03;;;1.52;;
14961;SDS011;56489;53.166;10.864;2022-07-26T08:44:48;1.90;;;1.27;;
14961;SDS011;56489;53.166;10.864;2022-07-26T08:47:17;1.90;;;1.65;;
14961;SDS011;56489;53.166;10.864;2022-07-26T08:50:05;2.10;;;1.08;;
14961;SDS011;56489;53.166;10.864;2022-07-26T08:52:32;2.33;;;1.20;;
14961;SDS011;56489;53.166;10.864;2022-07-26T08:54:59;2.90;;;1.20;;
14961;SDS011;56489;53.166;10.864;2022-07-26T08:57:26;2.97;;;1.20;;
14961;SDS011;56489;53.166;10.864;2022-07-26T09:02:44;2.17;;;1.00;;
14961;SDS011;56489;53.166;10.864;2022-07-26T09:05:11;1.88;;;0.80;;
14961;SDS011;56489;53.166;10.864;2022-07-26T09:07:39;2.65;;;1.05;;
14961;SDS011;56489;53.166;10.864;2022-07-26T09:10:07;1.65;;;0.63;;
14961;SDS011;56489;53.166;10.864;2022-07-26T09:12:36;2.97;;;1.02;;
14961;SDS011;56489;53.166;10.864;2022-07-26T09:15:04;0.57;;;0.50;;
14961;SDS011;56489;53.166;10.864;2022-07-26T09:17:49;0.75;;;0.70;;
14961;SDS011;56489;53.166;10.864;2022-07-26T09:20:18;1.02;;;0.68;;
14961;SDS011;56489;53.166;10.864;2022-07-26T09:23:03;0.77;;;0.70;;
14961;SDS011;56489;53.166;10.864;2022-07-26T09:25:34;1.00;;;0.80;;
14961;SDS011;56489;53.166;10.864;2022-07-26T09:28:28;1.63;;;1.00;;
14961;SDS011;56489;53.166;10.864;2022-07-26T09:30:56;1.25;;;0.90;;
14961;SDS011;56489;53.166;10.864;2022-07-26T09:33:25;1.25;;;0.70;;
14961;SDS011;56489;53.166;10.864;2022-07-26T09:36:08;0.85;;;0.40;;
14961;SDS011;56489;53.166;10.864;2022-07-26T09:38:38;1.63;;;0.50;;
14961;SDS011;56489;53.166;10.864;2022-07-26T09:43:47;1.42;;;0.47;;
14961;SDS011;56489;53.166;10.864;2022-07-26T09:46:19;0.90;;;0.40;;
14961;SDS011;56489;53.166;10.864;2022-07-26T09:48:47;1.08;;;0.82;;
14961;SDS011;56489;53.166;10.864;2022-07-26T09:51:44;1.05;;;0.43;;
14961;SDS011;56489;53.166;10.864;2022-07-26T09:56:49;0.98;;;0.47;;
14961;SDS011;56489;53.166;10.864;2022-07-26T09:59:18;1.00;;;0.40;;
14961;SDS011;56489;53.166;10.864;2022-07-26T10:01:48;1.17;;;0.50;;
14961;SDS011;56489;53.166;10.864;2022-07-26T10:04:15;1.08;;;0.43;;
14961;SDS011;56489;53.166;10.864;2022-07-26T10:06:42;1.88;;;0.82;;
14961;SDS011;56489;53.166;10.864;2022-07-26T10:09:10;0.32;;;0.30;;
14961;SDS011;56489;53.166;10.864;2022-07-26T10:11:41;0.60;;;0.40;;
14961;SDS011;56489;53.166;10.864;2022-07-26T10:16:58;1.42;;;0.55;;
14961;SDS011;56489;53.166;10.864;2022-07-26T10:19:39;0.63;;;0.50;;
14961;SDS011;56489;53.166;10.864;2022-07-26T10:22:21;0.52;;;0.40;;
14961;SDS011;56489;53.166;10.864;2022-07-26T10:27:53;1.42;;;0.80;;
14961;SDS011;56489;53.166;10.864;2022-07-26T10:30:22;1.20;;;1.10;;
14961;SDS011;56489;53.166;10.864;2022-07-26T10:33:00;0.70;;;0.70;;
14961;SDS011;56489;53.166;10.864;2022-07-26T10:40:54;1.35;;;0.63;;
14961;SDS011;56489;53.166;10.864;2022-07-26T10:43:28;1.27;;;0.85;;
14961;SDS011;56489;53.166;10.864;2022-07-26T10:48:55;1.50;;;0.70;;
14961;SDS011;56489;53.166;10.864;2022-07-26T10:51:31;0.60;;;0.57;;
14961;SDS011;56489;53.166;10.864;2022-07-26T10:54:04;0.80;;;0.40;;
14961;SDS011;56489;53.166;10.864;2022-07-26T10:56:33;0.60;;;0.50;;
14961;SDS011;56489;53.166;10.864;2022-07-26T10:58:59;1.27;;;0.88;;
14961;SDS011;56489;53.166;10.864;2022-07-26T11:01:37;1.48;;;0.50;;
14961;SDS011;56489;53.166;10.864;2022-07-26T11:04:06;1.00;;;0.50;;
14961;SDS011;56489;53.166;10.864;2022-07-26T11:06:43;0.60;;;0.50;;
14961;SDS011;56489;53.166;10.864;2022-07-26T11:09:10;0.95;;;0.60;;
14961;SDS011;56489;53.166;10.864;2022-07-26T11:11:38;1.17;;;0.60;;
14961;SDS011;56489;53.166;10.864;2022-07-26T11:14:13;3.35;;;0.77;;
14961;SDS011;56489;53.166;10.864;2022-07-26T11:16:42;1.15;;;0.80;;
14961;SDS011;56489;53.166;10.864;2022-07-26T11:19:17;2.10;;;0.70;;
14961;SDS011;56489;53.166;10.864;2022-07-26T11:21:54;1.75;;;0.50;;
14961;SDS011;56489;53.166;10.864;2022-07-26T11:24:23;3.45;;;0.70;;
14961;SDS011;56489;53.166;10.864;2022-07-26T11:26:51;0.95;;;0.60;;
14961;SDS011;56489;53.166;10.864;2022-07-26T11:29:28;1.55;;;0.60;;
14961;SDS011;56489;53.166;10.864;2022-07-26T11:32:04;1.52;;;0.60;;
14961;SDS011;56489;53.166;10.864;2022-07-26T11:34:42;1.58;;;1.02;;
14961;SDS011;56489;53.166;10.864;2022-07-26T11:37:10;1.55;;;0.70;;
14961;SDS011;56489;53.166;10.864;2022-07-26T11:39:37;0.80;;;0.70;;
14961;SDS011;56489;53.166;10.864;2022-07-26T11:42:10;1.27;;;0.73;;
14961;SDS011;56489;53.166;10.864;2022-07-26T11:44:44;0.60;;;0.60;;
14961;SDS011;56489;53.166;10.864;2022-07-26T11:47:16;1.88;;;0.60;;
14961;SDS011;56489;53.166;10.864;2022-07-26T11:49:46;0.90;;;0.60;;
14961;SDS011;56489;53.166;10.864;2022-07-26T11:52:33;1.17;;;0.60;;
14961;SDS011;56489;53.166;10.864;2022-07-26T11:55:00;0.50;;;0.50;;
14961;SDS011;56489;53.166;10.864;2022-07-26T11:57:30;0.73;;;0.60;;
14961;SDS011;56489;53.166;10.864;2022-07-26T11:59:58;2.45;;;0.70;;
14961;SDS011;56489;53.166;10.864;2022-07-26T12:02:25;1.48;;;0.52;;
14961;SDS011;56489;53.166;10.864;2022-07-26T12:05:11;0.93;;;0.55;;
14961;SDS011;56489;53.166;10.864;2022-07-26T12:08:00;1.05;;;0.52;;
14961;SDS011;56489;53.166;10.864;2022-07-26T12:10:29;0.70;;;0.70;;
14961;SDS011;56489;53.166;10.864;2022-07-26T12:13:12;1.73;;;0.73;;
14961;SDS011;56489;53.166;10.864;2022-07-26T12:15:48;0.80;;;0.80;;
14961;SDS011;56489;53.166;10.864;2022-07-26T12:18:29;0.93;;;0.70;;
14961;SDS011;56489;53.166;10.864;2022-07-26T12:21:03;2.30;;;0.75;;
14961;SDS011;56489;53.166;10.864;2022-07-26T12:23:40;1.55;;;0.70;;
14961;SDS011;56489;53.166;10.864;2022-07-26T12:26:25;1.27;;;0.57;;
14961;SDS011;56489;53.166;10.864;2022-07-26T12:28:53;1.58;;;0.60;;
14961;SDS011;56489;53.166;10.864;2022-07-26T12:31:24;2.33;;;0.65;;
14961;SDS011;56489;53.166;10.864;2022-07-26T12:33:52;0.68;;;0.50;;
14961;SDS011;56489;53.166;10.864;2022-07-26T12:36:19;1.35;;;0.50;;
14961;SDS011;56489;53.166;10.864;2022-07-26T12:38:58;2.65;;;0.60;;
14961;SDS011;56489;53.166;10.864;2022-07-26T12:41:30;0.90;;;0.50;;
14961;SDS011;56489;53.166;10.864;2022-07-26T12:44:01;1.17;;;0.80;;
14961;SDS011;56489;53.166;10.864;2022-07-26T12:46:30;2.50;;;0.63;;
14961;SDS011;56489;53.166;10.864;2022-07-26T12:48:58;1.65;;;0.85;;
14961;SDS011;56489;53.166;10.864;2022-07-26T12:51:26;1.20;;;0.80;;
14961;SDS011;56489;53.166;10.864;2022-07-26T12:53:53;2.10;;;1.45;;
14961;SDS011;56489;53.166;10.864;2022-07-26T12:56:20;1.48;;;0.85;;
14961;SDS011;56489;53.166;10.864;2022-07-26T12:58:46;1.48;;;0.60;;
14961;SDS011;56489;53.166;10.864;2022-07-26T13:01:13;2.55;;;1.02;;
14961;SDS011;56489;53.166;10.864;2022-07-26T13:03:39;0.82;;;0.65;;
14961;SDS011;56489;53.166;10.864;2022-07-26T13:06:06;2.20;;;0.80;;
14961;SDS011;56489;53.166;10.864;2022-07-26T13:08:33;2.53;;;0.80;;
14961;SDS011;56489;53.166;10.864;2022-07-26T13:10:59;4.05;;;0.88;;
14961;SDS011;56489;53.166;10.864;2022-07-26T13:13:26;1.17;;;0.73;;
14961;SDS011;56489;53.166;10.864;2022-07-26T13:15:53;3.20;;;0.80;;
14961;SDS011;56489;53.166;10.864;2022-07-26T13:18:19;1.23;;;0.85;;
14961;SDS011;56489;53.166;10.864;2022-07-26T13:20:46;2.78;;;0.82;;
14961;SDS011;56489;53.166;10.864;2022-07-26T13:23:12;2.33;;;0.85;;
14961;SDS011;56489;53.166;10.864;2022-07-26T13:25:47;2.58;;;1.05;;
14961;SDS011;56489;53.166;10.864;2022-07-26T13:28:14;1.83;;;0.80;;
14961;SDS011;56489;53.166;10.864;2022-07-26T13:30:42;1.88;;;0.95;;
14961;SDS011;56489;53.166;10.864;2022-07-26T13:33:08;2.55;;;0.90;;
14961;SDS011;56489;53.166;10.864;2022-07-26T13:35:36;0.50;;;0.50;;
14961;SDS011;56489;53.166;10.864;2022-07-26T13:38:06;2.70;;;1.05;;
14961;SDS011;56489;53.166;10.864;2022-07-26T13:40:32;2.15;;;1.10;;
14961;SDS011;56489;53.166;10.864;2022-07-26T13:42:59;2.38;;;1.00;;
14961;SDS011;56489;53.166;10.864;2022-07-26T13:45:26;3.33;;;0.82;;
14961;SDS011;56489;53.166;10.864;2022-07-26T13:47:54;2.53;;;0.80;;
14961;SDS011;56489;53.166;10.864;2022-07-26T13:50:22;3.78;;;1.38;;
14961;SDS011;56489;53.166;10.864;2022-07-26T13:52:48;2.85;;;1.00;;
14961;SDS011;56489;53.166;10.864;2022-07-26T13:55:15;4.15;;;1.35;;
14961;SDS011;56489;53.166;10.864;2022-07-26T13:57:42;1.30;;;0.80;;
14961;SDS011;56489;53.166;10.864;2022-07-26T14:00:22;3.55;;;1.10;;
14961;SDS011;56489;53.166;10.864;2022-07-26T14:02:54;1.58;;;1.08;;
14961;SDS011;56489;53.166;10.864;2022-07-26T14:05:23;2.72;;;0.98;;
14961;SDS011;56489;53.166;10.864;2022-07-26T14:07:50;1.20;;;1.10;;
14961;SDS011;56489;53.166;10.864;2022-07-26T14:10:17;2.05;;;0.93;;
14961;SDS011;56489;53.166;10.864;2022-07-26T14:12:44;2.30;;;0.75;;
14961;SDS011;56489;53.166;10.864;2022-07-26T14:15:12;0.80;;;0.60;;
14961;SDS011;56489;53.166;10.864;2022-07-26T14:17:47;1.98;;;1.20;;
14961;SDS011;56489;53.166;10.864;2022-07-26T14:20:13;3.17;;;0.93;;
14961;SDS011;56489;53.166;10.864;2022-07-26T14:22:42;5.80;;;1.70;;
14961;SDS011;56489;53.166;10.864;2022-07-26T14:25:08;3.85;;;1.30;;
14961;SDS011;56489;53.166;10.864;2022-07-26T14:27:35;5.93;;;1.48;;
14961;SDS011;56489;53.166;10.864;2022-07-26T14:30:02;4.55;;;0.90;;
14961;SDS011;56489;53.166;10.864;2022-07-26T14:32:30;3.42;;;1.33;;
14961;SDS011;56489;53.166;10.864;2022-07-26T14:34:56;4.30;;;1.98;;
14961;SDS011;56489;53.166;10.864;2022-07-26T14:37:23;1.98;;;1.13;;
14961;SDS011;56489;53.166;10.864;2022-07-26T14:40:10;3.55;;;1.55;;
14961;SDS011;56489;53.166;10.864;2022-07-26T14:42:41;3.70;;;1.40;;
14961;SDS011;56489;53.166;10.864;2022-07-26T14:45:07;3.38;;;1.13;;
14961;SDS011;56489;53.166;10.864;2022-07-26T14:47:35;3.47;;;1.58;;
14961;SDS011;56489;53.166;10.864;2022-07-26T14:50:02;3.72;;;1.40;;
14961;SDS011;56489;53.166;10.864;2022-07-26T14:52:33;3.75;;;1.05;;
14961;SDS011;56489;53.166;10.864;2022-07-26T14:55:04;3.10;;;1.10;;
14961;SDS011;56489;53.166;10.864;2022-07-26T14:57:32;4.35;;;1.38;;
14961;SDS011;56489;53.166;10.864;2022-07-26T15:00:04;4.13;;;1.65;;
14961;SDS011;56489;53.166;10.864;2022-07-26T15:02:32;2.22;;;1.20;;
14961;SDS011;56489;53.166;10.864;2022-07-26T15:04:59;3.55;;;1.10;;